createdAt,value
2024-04-14T00:00:37.435Z,14.74
2024-04-14T00:04:22.636Z,14.71
2024-04-14T00:07:48.092Z,14.70
2024-04-14T00:11:13.451Z,14.70
2024-04-14T00:14:39.418Z,14.72
2024-04-14T00:18:04.815Z,14.75
2024-04-14T00:21:31.339Z,14.78
2024-04-14T00:24:56.549Z,14.83
2024-04-14T00:28:21.592Z,14.90
2024-04-14T00:31:46.982Z,14.94
2024-04-14T00:35:12.135Z,15.01
2024-04-14T00:38:37.227Z,15.07
2024-04-14T00:42:02.425Z,15.09
2024-04-14T00:45:29.603Z,15.10
2024-04-14T00:48:54.917Z,15.08
2024-04-14T00:52:20.354Z,15.06
2024-04-14T00:55:46.806Z,15.03
2024-04-14T00:59:12.916Z,14.99
2024-04-14T01:02:38.035Z,14.96
2024-04-14T01:06:03.374Z,14.93
2024-04-14T01:09:29.475Z,14.87
2024-04-14T01:12:56.833Z,14.83
2024-04-14T01:16:22.407Z,14.81
2024-04-14T01:19:47.738Z,14.81
2024-04-14T01:23:13.503Z,14.82
2024-04-14T01:26:38.653Z,14.85
2024-04-14T01:30:04.617Z,14.89
2024-04-14T01:33:29.587Z,14.95
2024-04-14T01:36:54.520Z,14.99
2024-04-14T01:40:20.211Z,15.03
2024-04-14T01:43:45.383Z,15.06
2024-04-14T01:47:23.172Z,15.07
2024-04-14T01:50:50.156Z,15.07
2024-04-14T01:54:15.083Z,15.05
2024-04-14T01:57:40.390Z,15.01
2024-04-14T02:01:05.529Z,14.99
2024-04-14T02:04:30.840Z,14.97
2024-04-14T02:07:56.242Z,14.96
2024-04-14T02:11:21.451Z,14.94
2024-04-14T02:14:46.953Z,14.92
2024-04-14T02:18:12.066Z,14.92
2024-04-14T02:21:37.596Z,14.93
2024-04-14T02:25:02.550Z,14.93
2024-04-14T02:28:28.166Z,14.95
2024-04-14T02:31:53.668Z,14.97
2024-04-14T02:35:19.548Z,15.00
2024-04-14T02:38:44.862Z,15.03
2024-04-14T02:42:10.516Z,15.05
2024-04-14T02:45:36.039Z,15.08
2024-04-14T02:49:01.080Z,15.09
2024-04-14T02:52:26.612Z,15.07
2024-04-14T02:55:51.837Z,15.05
2024-04-14T02:59:17.336Z,15.03
2024-04-14T03:02:44.892Z,15.00
2024-04-14T03:06:10.449Z,14.97
2024-04-14T03:09:35.541Z,14.94
2024-04-14T03:13:00.571Z,14.93
2024-04-14T03:16:25.980Z,14.94
2024-04-14T03:19:55.189Z,14.95
2024-04-14T03:23:20.590Z,14.97
2024-04-14T03:26:45.795Z,15.00
2024-04-14T03:30:12.988Z,15.03
2024-04-14T03:33:38.314Z,15.07
2024-04-14T03:37:04.852Z,15.11
2024-04-14T03:40:30.030Z,15.13
2024-04-14T03:43:55.150Z,15.14
2024-04-14T03:47:20.220Z,15.14
2024-04-14T03:50:46.885Z,15.13
2024-04-14T03:54:13.364Z,15.11
2024-04-14T03:57:38.404Z,15.08
2024-04-14T04:01:03.470Z,15.06
2024-04-14T04:04:29.077Z,15.04
2024-04-14T04:07:54.078Z,15.01
2024-04-14T04:11:21.680Z,14.98
2024-04-14T04:14:47.337Z,14.98
2024-04-14T04:18:12.913Z,14.99
2024-04-14T04:21:38.147Z,15.02
2024-04-14T04:25:03.758Z,15.04
2024-04-14T04:28:29.701Z,15.08
2024-04-14T04:31:56.101Z,15.11
2024-04-14T04:35:21.579Z,15.13
2024-04-14T04:38:47.046Z,15.15
2024-04-14T04:42:12.445Z,15.16
2024-04-14T04:45:37.621Z,15.16
2024-04-14T04:49:02.769Z,15.15
2024-04-14T04:52:27.800Z,15.16
2024-04-14T04:55:53.320Z,15.15
2024-04-14T04:59:20.858Z,15.16
2024-04-14T05:02:47.519Z,15.18
2024-04-14T05:06:12.678Z,15.23
2024-04-14T05:09:37.683Z,15.29
2024-04-14T05:13:02.587Z,15.36
2024-04-14T05:16:27.644Z,15.43
2024-04-14T05:19:52.869Z,15.50
2024-04-14T05:23:18.194Z,15.55
2024-04-14T05:26:43.340Z,15.61
2024-04-14T05:30:10.502Z,15.64
2024-04-14T05:33:35.944Z,15.66
2024-04-14T05:37:03.249Z,15.65
2024-04-14T05:40:28.631Z,15.65
2024-04-14T05:43:53.742Z,15.66
2024-04-14T05:47:19.071Z,15.67
2024-04-14T05:50:44.119Z,15.69
2024-04-14T05:54:09.228Z,15.68
2024-04-14T05:57:35.930Z,15.75
2024-04-14T06:01:06.873Z,15.78
2024-04-14T06:04:32.864Z,15.83
2024-04-14T06:07:57.855Z,15.89
2024-04-14T06:11:23.027Z,15.96
2024-04-14T06:14:48.721Z,16.06
2024-04-14T06:18:14.164Z,16.17
2024-04-14T06:21:39.791Z,16.27
2024-04-14T06:25:05.431Z,16.34
2024-04-14T06:28:30.638Z,16.40
2024-04-14T06:31:55.905Z,16.44
2024-04-14T06:35:21.095Z,16.49
2024-04-14T06:38:46.350Z,16.51
2024-04-14T06:42:13.490Z,16.56
2024-04-14T06:45:40.812Z,16.64
2024-04-14T06:49:06.056Z,16.74
2024-04-14T06:52:31.260Z,16.82
2024-04-14T06:55:59.741Z,16.94
2024-04-14T06:59:24.654Z,17.05
2024-04-14T07:02:49.914Z,17.19
2024-04-14T07:06:15.440Z,17.34
2024-04-14T07:09:40.420Z,17.45
2024-04-14T07:13:05.628Z,17.54
2024-04-14T07:16:30.791Z,17.61
2024-04-14T07:19:55.918Z,17.71
2024-04-14T07:23:21.464Z,17.76
2024-04-14T07:26:46.696Z,17.77
2024-04-14T07:30:12.895Z,17.74
2024-04-14T07:33:38.890Z,17.71
2024-04-14T07:37:06.245Z,17.68
2024-04-14T07:40:31.263Z,17.69
2024-04-14T07:43:56.243Z,17.71
2024-04-14T07:47:21.509Z,17.74
2024-04-14T07:50:47.756Z,17.77
2024-04-14T07:54:13.155Z,17.81
2024-04-14T07:57:38.474Z,17.87
2024-04-14T08:01:05.939Z,17.93
2024-04-14T08:04:31.524Z,17.99
2024-04-14T08:07:56.744Z,18.00
2024-04-14T08:11:22.143Z,18.00
2024-04-14T08:14:47.642Z,17.97
2024-04-14T08:18:12.988Z,17.91
2024-04-14T08:21:38.166Z,17.93
2024-04-14T08:25:03.222Z,17.95
2024-04-14T08:28:28.680Z,18.01
2024-04-14T08:31:56.251Z,18.07
2024-04-14T08:35:21.224Z,18.12
2024-04-14T08:38:46.301Z,18.19
2024-04-14T08:42:12.700Z,18.26
2024-04-14T08:45:38.567Z,18.31
2024-04-14T08:49:04.865Z,18.36
2024-04-14T08:52:31.607Z,18.40
2024-04-14T08:55:58.879Z,18.50
2024-04-14T08:59:27.746Z,18.60
2024-04-14T09:02:54.434Z,18.67
2024-04-14T09:06:21.962Z,18.70
2024-04-14T09:09:50.476Z,18.70
2024-04-14T09:13:18.858Z,18.65
2024-04-14T09:16:44.326Z,18.64
2024-04-14T09:20:11.991Z,18.68
2024-04-14T09:23:38.103Z,18.64
2024-04-14T09:27:05.622Z,18.63
2024-04-14T09:30:31.138Z,18.62
2024-04-14T09:33:56.914Z,18.63
2024-04-14T09:37:22.972Z,18.61
2024-04-14T09:40:48.879Z,18.54
2024-04-14T09:44:15.315Z,18.45
2024-04-14T09:47:41.866Z,18.41
2024-04-14T09:51:09.406Z,18.37
2024-04-14T09:54:35.983Z,18.32
2024-04-14T09:58:01.257Z,18.20
2024-04-14T10:01:32.579Z,18.05
2024-04-14T10:04:59.810Z,17.97
2024-04-14T10:08:25.379Z,17.84
2024-04-14T10:11:50.491Z,17.76
2024-04-14T10:15:17.992Z,17.68
2024-04-14T10:18:45.336Z,17.50
2024-04-14T10:22:12.469Z,17.35
2024-04-14T10:25:49.051Z,17.21
2024-04-14T10:29:14.669Z,17.09
2024-04-14T10:32:40.180Z,17.04
2024-04-14T10:36:06.768Z,17.05
2024-04-14T10:39:33.117Z,17.00
2024-04-14T10:42:58.242Z,16.96
2024-04-14T10:46:23.501Z,16.91
2024-04-14T10:49:50.655Z,16.90
2024-04-14T10:53:16.790Z,16.88
2024-04-14T10:56:44.420Z,16.96
2024-04-14T11:00:13.457Z,17.08
2024-04-14T11:03:38.944Z,17.17
2024-04-14T11:07:05.526Z,17.24
2024-04-14T11:10:31.761Z,17.32
2024-04-14T11:13:57.229Z,17.54
2024-04-14T11:17:22.606Z,17.78
2024-04-14T11:20:51.539Z,17.97
2024-04-14T11:24:16.602Z,18.19
2024-04-14T11:27:42.750Z,18.36
2024-04-14T11:31:09.119Z,18.51
2024-04-14T11:34:34.451Z,18.64
2024-04-14T11:37:59.943Z,18.79
2024-04-14T11:41:25.214Z,18.94
2024-04-14T11:44:50.222Z,19.09
2024-04-14T11:48:16.197Z,19.20
2024-04-14T11:51:41.343Z,19.29
2024-04-14T11:55:08.932Z,19.39
2024-04-14T11:58:35.256Z,19.49
2024-04-14T12:02:00.732Z,19.58
2024-04-14T12:05:25.839Z,19.76
2024-04-14T12:08:51.305Z,19.91
2024-04-14T12:12:17.367Z,20.03
2024-04-14T12:15:42.840Z,20.09
2024-04-14T12:19:07.966Z,20.20
2024-04-14T12:22:33.056Z,20.36
2024-04-14T12:25:58.241Z,20.52
2024-04-14T12:29:23.618Z,20.68
2024-04-14T12:32:49.032Z,20.78
2024-04-14T12:36:14.134Z,20.91
2024-04-14T12:39:40.541Z,21.09
2024-04-14T12:43:06.373Z,21.31
2024-04-14T12:46:31.874Z,21.47
2024-04-14T12:49:57.729Z,21.51
2024-04-14T12:53:23.890Z,21.61
2024-04-14T12:56:48.875Z,21.77
2024-04-14T13:00:14.604Z,21.99
2024-04-14T13:03:40.098Z,22.18
2024-04-14T13:07:05.893Z,22.20
2024-04-14T13:10:31.789Z,22.06
2024-04-14T13:13:57.126Z,22.04
2024-04-14T13:17:22.384Z,22.15
2024-04-14T13:20:47.609Z,22.26
2024-04-14T13:24:12.860Z,22.26
2024-04-14T13:27:37.997Z,22.25
2024-04-14T13:31:03.165Z,22.25
2024-04-14T13:34:28.816Z,22.25
2024-04-14T13:37:54.468Z,22.36
2024-04-14T13:41:20.639Z,22.56
2024-04-14T13:44:49.565Z,22.69
2024-04-14T13:48:14.901Z,22.72
2024-04-14T13:51:40.921Z,22.81
2024-04-14T13:55:06.953Z,22.87
2024-04-14T13:58:33.903Z,22.91
2024-04-14T14:01:59.111Z,22.72
2024-04-14T14:05:24.801Z,22.63
2024-04-14T14:08:49.829Z,22.69
2024-04-14T14:12:15.739Z,22.79
2024-04-14T14:15:41.210Z,22.96
2024-04-14T14:19:06.090Z,23.06
2024-04-14T14:22:31.674Z,23.13
2024-04-14T14:25:56.895Z,23.16
2024-04-14T14:29:22.098Z,23.21
2024-04-14T14:32:47.488Z,23.19
2024-04-14T14:36:27.558Z,23.10
2024-04-14T14:39:53.500Z,23.07
2024-04-14T14:43:18.451Z,22.99
2024-04-14T14:46:43.527Z,22.83
2024-04-14T14:50:09.112Z,22.77
2024-04-14T14:53:34.378Z,22.67
2024-04-14T14:56:59.751Z,22.54
2024-04-14T15:00:25.081Z,22.30
2024-04-14T15:03:53.025Z,22.03
2024-04-14T15:07:18.911Z,21.66
2024-04-14T15:10:47.655Z,21.32
2024-04-14T15:14:12.672Z,20.97
2024-04-14T15:17:38.244Z,20.64
2024-04-14T15:21:03.455Z,20.31
2024-04-14T15:24:28.638Z,20.04
2024-04-14T15:27:54.326Z,19.75
2024-04-14T15:31:19.476Z,19.49
2024-04-14T15:34:45.445Z,19.27
2024-04-14T15:38:10.692Z,19.06
2024-04-14T15:41:35.998Z,18.84
2024-04-14T15:45:01.179Z,18.66
2024-04-14T15:48:26.592Z,18.43
2024-04-14T15:51:51.851Z,18.26
2024-04-14T15:55:19.635Z,18.10
2024-04-14T15:58:45.022Z,17.94
2024-04-14T16:02:10.162Z,17.78
2024-04-14T16:05:36.953Z,17.66
2024-04-14T16:09:02.242Z,17.57
2024-04-14T16:12:27.922Z,17.44
2024-04-14T16:15:53.654Z,17.27
2024-04-14T16:19:19.755Z,17.11
2024-04-14T16:22:45.506Z,17.00
2024-04-14T16:26:10.526Z,16.89
2024-04-14T16:29:36.447Z,16.80
2024-04-14T16:33:01.770Z,16.67
2024-04-14T16:36:26.915Z,16.56
2024-04-14T16:39:51.942Z,16.46
2024-04-14T16:43:17.411Z,16.36
2024-04-14T16:46:42.693Z,16.24
2024-04-14T16:50:09.476Z,16.11
2024-04-14T16:53:34.561Z,16.01
2024-04-14T16:56:59.736Z,15.94
2024-04-14T17:00:24.805Z,15.89
2024-04-14T17:03:50.426Z,15.79
2024-04-14T17:07:17.246Z,15.70
2024-04-14T17:10:42.729Z,15.59
2024-04-14T17:14:07.830Z,15.51
2024-04-14T17:17:33.016Z,15.44
2024-04-14T17:20:58.050Z,15.36
2024-04-14T17:24:23.463Z,15.25
2024-04-14T17:27:48.559Z,15.15
2024-04-14T17:31:13.704Z,15.05
2024-04-14T17:34:38.964Z,14.94
2024-04-14T17:38:04.608Z,14.85
2024-04-14T17:41:30.249Z,14.78
2024-04-14T17:44:55.647Z,14.69
2024-04-14T17:48:22.752Z,14.58
2024-04-14T17:51:48.362Z,14.45
2024-04-14T17:55:13.678Z,14.31
2024-04-14T17:58:38.960Z,14.18
2024-04-14T18:02:04.273Z,14.06
2024-04-14T18:05:29.389Z,13.95
2024-04-14T18:08:54.389Z,13.83
2024-04-14T18:12:19.741Z,13.71
2024-04-14T18:15:44.758Z,13.59
2024-04-14T18:19:09.699Z,13.48
2024-04-14T18:22:34.732Z,13.38
2024-04-14T18:25:59.726Z,13.29
2024-04-14T18:29:26.322Z,13.20
2024-04-14T18:32:51.754Z,13.11
2024-04-14T18:36:19.068Z,13.02
2024-04-14T18:39:46.152Z,12.91
2024-04-14T18:43:11.137Z,12.81
2024-04-14T18:46:36.274Z,12.71
2024-04-14T18:50:01.665Z,12.61
2024-04-14T18:53:27.391Z,12.52
2024-04-14T18:56:53.808Z,12.44
2024-04-14T19:00:20.303Z,12.38
2024-04-14T19:03:53.130Z,12.32
2024-04-14T19:07:19.646Z,12.25
2024-04-14T19:10:45.162Z,12.18
2024-04-14T19:14:13.030Z,12.11
2024-04-14T19:17:38.804Z,12.04
2024-04-14T19:21:03.879Z,11.95
2024-04-14T19:24:29.340Z,11.89
2024-04-14T19:27:54.957Z,11.85
2024-04-14T19:31:21.128Z,11.82
2024-04-14T19:34:46.673Z,11.80
2024-04-14T19:38:13.144Z,11.78
2024-04-14T19:41:38.456Z,11.73
2024-04-14T19:45:03.470Z,11.66
2024-04-14T19:48:29.504Z,11.61
2024-04-14T19:51:54.778Z,11.54
2024-04-14T19:55:20.048Z,11.44
2024-04-14T19:58:45.602Z,11.37
2024-04-14T20:02:10.867Z,11.34
2024-04-14T20:05:36.833Z,11.32
2024-04-14T20:09:02.222Z,11.28
2024-04-14T20:12:27.765Z,11.24
2024-04-14T20:15:53.240Z,11.21
2024-04-14T20:19:18.567Z,11.17
2024-04-14T20:22:43.768Z,11.10
2024-04-14T20:26:09.532Z,11.03
2024-04-14T20:29:35.632Z,10.99
2024-04-14T20:33:00.601Z,10.97
2024-04-14T20:36:26.146Z,10.96
2024-04-14T20:39:51.779Z,10.94
2024-04-14T20:43:17.066Z,10.91
2024-04-14T20:46:42.713Z,10.86
2024-04-14T20:50:08.829Z,10.80
2024-04-14T20:53:34.206Z,10.73
2024-04-14T20:56:59.927Z,10.66
2024-04-14T21:00:25.187Z,10.59
2024-04-14T21:03:50.867Z,10.54
2024-04-14T21:07:16.960Z,10.47
2024-04-14T21:10:42.420Z,10.39
2024-04-14T21:14:07.537Z,10.34
2024-04-14T21:17:32.715Z,10.29
2024-04-14T21:20:58.414Z,10.23
2024-04-14T21:24:23.731Z,10.17
2024-04-14T21:27:49.045Z,10.10
2024-04-14T21:31:17.013Z,10.04
2024-04-14T21:34:42.415Z,9.97
2024-04-14T21:38:09.453Z,9.91
2024-04-14T21:41:35.975Z,9.85
2024-04-14T21:45:01.459Z,9.79
2024-04-14T21:48:28.209Z,9.72
2024-04-14T21:51:54.853Z,9.65
2024-04-14T21:55:20.717Z,9.56
2024-04-14T21:58:45.931Z,9.50
2024-04-14T22:02:11.434Z,9.41
2024-04-14T22:05:36.398Z,9.35
2024-04-14T22:09:01.399Z,9.27
2024-04-14T22:12:26.940Z,9.20
2024-04-14T22:15:53.393Z,9.13
2024-04-14T22:19:19.354Z,9.07
2024-04-14T22:22:45.295Z,9.00
2024-04-14T22:26:10.832Z,8.94
2024-04-14T22:29:36.050Z,8.89
2024-04-14T22:33:01.608Z,8.84
2024-04-14T22:36:26.469Z,8.78
2024-04-14T22:39:51.625Z,8.74
2024-04-14T22:43:17.231Z,8.71
2024-04-14T22:46:43.141Z,8.68
2024-04-14T22:50:09.423Z,8.65
2024-04-14T22:53:34.683Z,8.62
2024-04-14T22:56:59.686Z,8.59
2024-04-14T23:00:25.000Z,8.56
2024-04-14T23:03:50.435Z,8.53
2024-04-14T23:07:16.055Z,8.50
2024-04-14T23:10:41.053Z,8.46
2024-04-14T23:14:06.053Z,8.43
2024-04-14T23:17:31.054Z,8.39
2024-04-14T23:20:56.378Z,8.35
2024-04-14T23:24:24.956Z,8.32
2024-04-14T23:27:50.020Z,8.32
2024-04-14T23:31:15.197Z,8.31
2024-04-14T23:34:40.387Z,8.31
2024-04-14T23:38:06.933Z,8.33
2024-04-14T23:41:32.347Z,8.34
2024-04-14T23:44:57.813Z,8.32
2024-04-14T23:48:23.536Z,8.30
2024-04-14T23:51:49.360Z,8.28
2024-04-14T23:55:14.562Z,8.24
2024-04-14T23:58:40.698Z,8.19
